Time;durP1;ratioP1;P1;durP2;ratioP2;P2;SDS_P1;SDS_P2;PMS_P1;PMS_P2;Temp;Humidity;BMP_temperature;BMP_pressure;BME280_temperature;BME280_humidity;BME280_pressure;Samples;Min_cycle;Max_cycle;Signal;HPM_P1;HPM_P2
2022/10/12 00:00:55;;;;;;;4.63;0.60;;;7.60;99.90;;;;;;5012106;28;20041;-74
2022/10/12 00:03:22;;;;;;;4.25;0.70;;;7.60;99.90;;;;;;5026894;28;20034;-73
2022/10/12 00:06:09;;;;;;;2.55;0.52;;;7.60;99.90;;;;;;5027701;28;20033;-73
2022/10/12 00:08:38;;;;;;;2.85;0.60;;;7.60;99.90;;;;;;5014834;28;20415;-73
2022/10/12 00:11:05;;;;;;;3.05;0.60;;;7.60;99.90;;;;;;5030673;28;20045;-73
2022/10/12 00:13:32;;;;;;;3.83;0.70;;;7.60;99.90;;;;;;5012822;28;20420;-73
2022/10/12 00:16:04;;;;;;;3.85;0.50;;;7.70;99.90;;;;;;5007808;28;20037;-73
2022/10/12 00:18:31;;;;;;;4.15;0.60;;;7.70;99.90;;;;;;5034524;28;20029;-73
2022/10/12 00:21:05;;;;;;;3.55;0.88;;;7.70;99.90;;;;;;5031649;28;20036;-73
2022/10/12 00:23:32;;;;;;;5.47;0.70;;;7.70;99.90;;;;;;5035333;28;20041;-73
2022/10/12 00:26:09;;;;;;;4.97;0.70;;;7.60;99.90;;;;;;5027721;28;20044;-74
2022/10/12 00:28:35;;;;;;;6.32;0.93;;;7.60;99.90;;;;;;5014766;28;20033;-73
2022/10/12 00:31:11;;;;;;;4.20;0.90;;;7.50;99.90;;;;;;5032519;28;20040;-73
2022/10/12 00:33:38;;;;;;;5.55;0.90;;;7.50;99.90;;;;;;5033088;28;20117;-73
2022/10/12 00:36:22;;;;;;;2.58;0.90;;;7.50;99.90;;;;;;5027869;28;20052;-74
2022/10/12 00:38:50;;;;;;;2.28;0.60;;;7.50;99.90;;;;;;5011897;28;20033;-73
2022/10/12 00:41:19;;;;;;;6.40;0.90;;;7.40;99.90;;;;;;5035788;28;20044;-73
2022/10/12 00:43:47;;;;;;;4.15;0.60;;;7.40;99.90;;;;;;5004826;28;20033;-73
2022/10/12 00:46:41;;;;;;;4.47;0.68;;;7.40;99.90;;;;;;5015156;28;20056;-74
2022/10/12 00:49:17;;;;;;;3.83;0.52;;;7.40;99.90;;;;;;5030540;28;20451;-74
2022/10/12 00:51:50;;;;;;;4.03;0.50;;;7.40;99.90;;;;;;5030573;28;20029;-73
2022/10/12 00:54:22;;;;;;;4.43;0.68;;;7.40;99.90;;;;;;5010150;28;20052;-73
2022/10/12 00:56:52;;;;;;;5.00;0.77;;;7.40;99.90;;;;;;5031850;28;20029;-73
2022/10/12 00:59:23;;;;;;;2.65;0.50;;;7.30;99.90;;;;;;5030225;28;20040;-73
2022/10/12 01:01:49;;;;;;;3.50;0.50;;;7.40;99.90;;;;;;5001166;28;20045;-73
2022/10/12 01:04:16;;;;;;;2.40;0.43;;;7.30;99.90;;;;;;5028563;28;20041;-73
2022/10/12 01:06:42;;;;;;;4.25;0.50;;;7.30;99.90;;;;;;5028573;28;20064;-73
2022/10/12 01:09:09;;;;;;;2.55;0.60;;;7.40;99.90;;;;;;5029634;28;20037;-73
2022/10/12 01:11:35;;;;;;;4.05;0.55;;;7.40;99.90;;;;;;5033015;28;20037;-73
2022/10/12 01:14:01;;;;;;;3.67;0.50;;;7.40;99.90;;;;;;5015878;28;20057;-73
2022/10/12 01:16:37;;;;;;;2.92;0.40;;;7.40;99.90;;;;;;5030412;28;20045;-73
2022/10/12 01:19:25;;;;;;;1.60;0.40;;;7.40;99.90;;;;;;5029616;28;20049;-73
2022/10/12 01:22:02;;;;;;;5.05;0.50;;;7.40;99.90;;;;;;5017402;28;20041;-74
2022/10/12 01:24:54;;;;;;;5.25;0.50;;;7.40;99.90;;;;;;5010383;28;20377;-73
2022/10/12 01:27:32;;;;;;;4.45;0.50;;;7.30;99.90;;;;;;5028947;28;20040;-73
2022/10/12 01:30:20;;;;;;;3.90;0.68;;;7.30;99.90;;;;;;5032695;28;20033;-73
2022/10/12 01:33:18;;;;;;;4.15;0.60;;;7.30;99.90;;;;;;5033176;28;20029;-73
2022/10/12 01:35:50;;;;;;;2.80;0.60;;;7.30;99.90;;;;;;5028288;28;20036;-72
2022/10/12 01:38:36;;;;;;;2.95;0.40;;;7.30;99.90;;;;;;5034179;28;20392;-73
2022/10/12 01:41:25;;;;;;;3.70;0.45;;;7.30;99.90;;;;;;5026188;28;20040;-73
2022/10/12 01:43:51;;;;;;;4.03;0.60;;;7.30;99.90;;;;;;5028785;28;20042;-72
2022/10/12 01:46:17;;;;;;;3.63;0.50;;;7.30;99.90;;;;;;5012755;28;20037;-72
2022/10/12 01:48:47;;;;;;;2.95;0.40;;;7.40;99.90;;;;;;5012792;28;20037;-72
2022/10/12 01:51:26;;;;;;;3.50;0.55;;;7.40;99.90;;;;;;5030446;28;20040;-72
2022/10/12 01:54:32;;;;;;;4.70;0.65;;;7.40;99.90;;;;;;5024526;28;20041;-72
2022/10/12 01:57:17;;;;;;;2.75;0.47;;;7.30;99.90;;;;;;5026946;28;20061;-72
2022/10/12 02:00:08;;;;;;;4.50;1.02;;;7.30;99.90;;;;;;5035153;28;20053;-72
2022/10/12 02:03:30;;;;;;;2.35;0.40;;;7.40;99.90;;;;;;5033739;28;20484;-72
2022/10/12 02:06:10;;;;;;;7.28;0.40;;;7.40;99.90;;;;;;4999035;28;20063;-72
2022/10/12 02:08:46;;;;;;;3.38;0.50;;;7.40;99.90;;;;;;5036016;28;20033;-72
2022/10/12 02:11:14;;;;;;;6.10;0.90;;;7.40;99.90;;;;;;5035446;28;20034;-72
2022/10/12 02:13:47;;;;;;;4.40;0.50;;;7.30;99.90;;;;;;5017160;28;20060;-71
2022/10/12 02:16:17;;;;;;;5.03;0.50;;;7.30;99.90;;;;;;5038953;28;20431;-72
2022/10/12 02:18:49;;;;;;;2.83;0.50;;;7.30;99.90;;;;;;5034822;28;20096;-72
2022/10/12 02:21:21;;;;;;;3.78;0.50;;;7.30;99.90;;;;;;5035803;28;20046;-72
2022/10/12 02:23:49;;;;;;;3.75;0.70;;;7.30;99.90;;;;;;5019005;28;20079;-72
2022/10/12 02:26:16;;;;;;;4.57;0.60;;;7.30;99.90;;;;;;5034555;28;20040;-72
2022/10/12 02:28:43;;;;;;;3.00;0.47;;;7.30;99.90;;;;;;5030961;28;20044;-72
2022/10/12 02:31:36;;;;;;;2.35;0.50;;;7.30;99.90;;;;;;5022156;28;20036;-72
2022/10/12 02:34:14;;;;;;;2.80;0.60;;;7.30;99.90;;;;;;5021985;28;20061;-72
2022/10/12 02:37:01;;;;;;;2.33;0.40;;;7.30;99.90;;;;;;5017105;28;20046;-72
2022/10/12 02:39:33;;;;;;;3.47;0.50;;;7.30;99.90;;;;;;5033467;28;20041;-72
2022/10/12 02:42:07;;;;;;;2.80;0.50;;;7.30;99.90;;;;;;5035904;28;20045;-72
2022/10/12 02:44:37;;;;;;;3.42;0.50;;;7.20;99.90;;;;;;5030825;28;20461;-72
2022/10/12 02:47:06;;;;;;;2.72;0.40;;;7.30;99.90;;;;;;5031765;28;20026;-72
2022/10/12 02:49:35;;;;;;;6.68;0.60;;;7.30;99.90;;;;;;5036321;28;20064;-72
2022/10/12 02:52:03;;;;;;;5.65;0.70;;;7.30;99.90;;;;;;5035757;28;20052;-72
2022/10/12 02:54:30;;;;;;;3.58;0.50;;;7.40;99.90;;;;;;5015866;28;20040;-72
2022/10/12 02:56:56;;;;;;;6.85;0.50;;;7.40;99.90;;;;;;5020635;28;20033;-72
2022/10/12 02:59:22;;;;;;;3.40;0.55;;;7.40;99.90;;;;;;5035624;28;20033;-72
2022/10/12 03:01:49;;;;;;;3.22;0.60;;;7.40;99.90;;;;;;5019385;28;20515;-72
2022/10/12 03:04:15;;;;;;;3.28;0.57;;;7.40;99.90;;;;;;5032332;28;20042;-72
2022/10/12 03:06:41;;;;;;;5.85;0.60;;;7.40;99.90;;;;;;5030680;28;20032;-72
2022/10/12 03:09:08;;;;;;;5.93;0.77;;;7.40;99.90;;;;;;5023732;28;20029;-72
2022/10/12 03:11:36;;;;;;;4.95;1.13;;;7.40;99.90;;;;;;5032435;28;20048;-73
2022/10/12 03:14:03;;;;;;;5.78;0.70;;;7.40;99.90;;;;;;5029371;28;20057;-73
2022/10/12 03:16:29;;;;;;;4.68;0.40;;;7.40;99.90;;;;;;5021058;28;20050;-72
2022/10/12 03:18:55;;;;;;;4.30;0.50;;;7.40;99.90;;;;;;5033871;28;20029;-72
2022/10/12 03:21:21;;;;;;;4.15;0.60;;;7.40;99.90;;;;;;5036075;28;20040;-73
2022/10/12 03:23:48;;;;;;;8.85;0.70;;;7.30;99.90;;;;;;5034345;28;20029;-72
2022/10/12 03:26:14;;;;;;;5.45;0.88;;;7.30;99.90;;;;;;5016158;28;20044;-72
2022/10/12 03:28:40;;;;;;;3.35;0.60;;;7.20;99.90;;;;;;5004866;28;20046;-72
2022/10/12 03:31:06;;;;;;;3.28;0.75;;;7.10;99.90;;;;;;5032861;28;20033;-72
2022/10/12 03:33:33;;;;;;;2.55;0.50;;;7.10;99.90;;;;;;5034922;28;20056;-73
2022/10/12 03:35:59;;;;;;;4.43;0.90;;;7.00;99.90;;;;;;5029639;28;20476;-72
2022/10/12 03:38:25;;;;;;;7.18;0.70;;;6.90;99.90;;;;;;5036894;28;20041;-72
2022/10/12 03:40:52;;;;;;;4.53;1.10;;;6.90;99.90;;;;;;5035546;28;20489;-72
2022/10/12 03:43:18;;;;;;;4.45;0.57;;;6.90;99.90;;;;;;5036126;28;20707;-72
2022/10/12 03:45:45;;;;;;;5.45;1.05;;;6.90;99.90;;;;;;5013167;28;20044;-72
2022/10/12 03:48:11;;;;;;;4.28;0.60;;;6.90;99.90;;;;;;5017808;28;20061;-72
2022/10/12 03:50:37;;;;;;;3.20;0.80;;;6.80;99.90;;;;;;5035167;28;20048;-72
2022/10/12 03:53:04;;;;;;;4.97;0.82;;;6.80;99.90;;;;;;5033373;28;20488;-72
2022/10/12 03:55:31;;;;;;;3.30;0.82;;;6.80;99.90;;;;;;5031759;28;20041;-72
2022/10/12 03:57:58;;;;;;;6.22;1.20;;;6.80;99.90;;;;;;5035310;28;20049;-72
2022/10/12 04:00:24;;;;;;;4.50;1.00;;;6.80;99.90;;;;;;5036589;28;20033;-72
2022/10/12 04:02:51;;;;;;;4.50;1.23;;;6.70;99.90;;;;;;5036287;28;20504;-72
2022/10/12 04:05:17;;;;;;;5.55;2.10;;;6.70;99.90;;;;;;5029237;28;20029;-72
2022/10/12 04:07:43;;;;;;;3.50;1.20;;;6.70;99.90;;;;;;5017851;28;20034;-72
2022/10/12 04:10:09;;;;;;;3.70;1.15;;;6.70;99.90;;;;;;5034229;28;20400;-73
2022/10/12 04:12:36;;;;;;;3.85;1.00;;;6.60;99.90;;;;;;5022464;28;20423;-73
2022/10/12 04:15:03;;;;;;;3.25;1.02;;;6.60;99.90;;;;;;5028398;28;20037;-72
2022/10/12 04:17:29;;;;;;;7.95;1.90;;;6.50;99.90;;;;;;5033228;28;20488;-72
2022/10/12 04:19:55;;;;;;;6.63;1.63;;;6.50;99.90;;;;;;5033644;28;20038;-73
2022/10/12 04:22:23;;;;;;;6.55;2.22;;;6.50;99.90;;;;;;5036347;28;20029;-73
2022/10/12 04:24:50;;;;;;;5.10;1.30;;;6.50;99.90;;;;;;5027813;28;20044;-72
2022/10/12 04:27:16;;;;;;;4.43;1.80;;;6.50;99.90;;;;;;5031644;28;20107;-72
2022/10/12 04:29:42;;;;;;;5.82;1.88;;;6.50;99.90;;;;;;5034996;28;20041;-73
2022/10/12 04:32:08;;;;;;;7.50;2.25;;;6.40;99.90;;;;;;5033288;28;20029;-72
2022/10/12 04:34:35;;;;;;;5.78;1.58;;;6.40;99.90;;;;;;5030422;28;20032;-72
2022/10/12 04:37:02;;;;;;;6.07;1.65;;;6.40;99.90;;;;;;5031472;28;20033;-72
2022/10/12 04:39:28;;;;;;;6.35;2.28;;;6.40;99.90;;;;;;5036624;28;20053;-72
2022/10/12 04:41:55;;;;;;;5.32;1.80;;;6.30;99.90;;;;;;5031974;28;20025;-73
2022/10/12 04:44:21;;;;;;;5.47;1.73;;;6.30;99.90;;;;;;5027653;28;20034;-73
2022/10/12 04:46:47;;;;;;;5.22;2.13;;;6.30;99.90;;;;;;5034586;28;20467;-73
2022/10/12 04:49:15;;;;;;;6.05;1.77;;;6.30;99.90;;;;;;5029122;28;20403;-72
2022/10/12 04:51:41;;;;;;;4.82;1.58;;;6.30;99.90;;;;;;5032911;28;20028;-73
2022/10/12 04:54:09;;;;;;;7.95;1.67;;;6.30;99.90;;;;;;5030696;28;20042;-72
2022/10/12 04:56:36;;;;;;;7.18;1.92;;;6.30;99.90;;;;;;5019504;28;20046;-72
2022/10/12 04:59:02;;;;;;;5.82;2.05;;;6.20;99.90;;;;;;5033169;28;20036;-72
2022/10/12 05:01:28;;;;;;;6.85;2.30;;;6.20;99.90;;;;;;5032608;28;20512;-72
2022/10/12 05:03:55;;;;;;;5.57;1.90;;;6.20;99.90;;;;;;5030162;28;20853;-72
2022/10/12 05:06:21;;;;;;;5.53;1.58;;;6.20;99.90;;;;;;5035826;28;20026;-72
2022/10/12 05:08:47;;;;;;;5.72;2.58;;;6.10;99.90;;;;;;5035346;28;20029;-72
2022/10/12 05:11:13;;;;;;;4.97;2.55;;;6.10;99.90;;;;;;5032341;28;20030;-72
2022/10/12 05:13:39;;;;;;;9.50;2.95;;;6.20;99.90;;;;;;5031686;28;20072;-72
2022/10/12 05:16:06;;;;;;;8.60;2.85;;;6.20;99.90;;;;;;5025222;28;20037;-72
2022/10/12 05:18:32;;;;;;;6.15;2.33;;;6.20;99.90;;;;;;5032495;28;20052;-73
2022/10/12 05:20:58;;;;;;;8.77;2.50;;;6.20;99.90;;;;;;5020518;28;20041;-72
2022/10/12 05:23:25;;;;;;;7.68;2.58;;;6.20;99.90;;;;;;5034956;28;20033;-72
2022/10/12 05:25:54;;;;;;;6.53;2.40;;;6.20;99.90;;;;;;5007892;28;20033;-72
2022/10/12 05:28:21;;;;;;;6.63;2.90;;;6.20;99.90;;;;;;5031707;28;20393;-72
2022/10/12 05:30:51;;;;;;;9.70;3.65;;;6.10;99.90;;;;;;5034350;28;20041;-73
2022/10/12 05:33:18;;;;;;;8.65;3.30;;;6.10;99.90;;;;;;5036745;28;20034;-73
2022/10/12 05:35:47;;;;;;;8.00;2.85;;;6.10;99.90;;;;;;5030894;28;20044;-73
2022/10/12 05:38:13;;;;;;;7.15;2.95;;;6.10;99.90;;;;;;5036904;28;20050;-73
2022/10/12 05:40:39;;;;;;;5.85;2.40;;;6.10;99.90;;;;;;5038784;28;20472;-72
2022/10/12 05:43:06;;;;;;;6.88;2.58;;;6.10;99.90;;;;;;5036819;28;20025;-73
2022/10/12 05:45:32;;;;;;;5.88;2.70;;;6.10;99.90;;;;;;5030279;28;20517;-73
2022/10/12 05:47:58;;;;;;;6.15;2.20;;;6.10;99.90;;;;;;5038879;28;20277;-73
2022/10/12 05:50:24;;;;;;;5.07;2.47;;;6.10;99.90;;;;;;5035948;28;20041;-73
2022/10/12 05:52:51;;;;;;;5.65;1.95;;;6.10;99.90;;;;;;5034885;28;20034;-73
2022/10/12 05:55:17;;;;;;;8.02;2.83;;;6.10;99.90;;;;;;5031729;28;20033;-72
2022/10/12 05:57:43;;;;;;;7.70;3.05;;;6.10;99.90;;;;;;5034942;28;20492;-73
2022/10/12 06:00:10;;;;;;;9.77;4.03;;;6.10;99.90;;;;;;5033499;28;20041;-73
2022/10/12 06:02:36;;;;;;;8.93;7.13;;;6.10;99.90;;;;;;5035645;28;20033;-73
2022/10/12 06:05:02;;;;;;;7.13;4.32;;;6.10;99.90;;;;;;5027735;28;20029;-72
2022/10/12 06:07:29;;;;;;;7.40;3.72;;;6.20;99.90;;;;;;5036572;28;20049;-73
2022/10/12 06:09:55;;;;;;;5.93;3.50;;;6.20;99.90;;;;;;5033781;28;20049;-73
2022/10/12 06:12:22;;;;;;;6.30;4.10;;;6.20;99.90;;;;;;5030749;28;20049;-73
2022/10/12 06:14:49;;;;;;;6.80;3.30;;;6.20;99.90;;;;;;5032053;28;20044;-73
2022/10/12 06:17:15;;;;;;;7.10;3.50;;;6.20;99.90;;;;;;5033078;28;20052;-73
2022/10/12 06:19:41;;;;;;;7.80;3.35;;;6.20;99.90;;;;;;5016315;28;20060;-73
2022/10/12 06:22:08;;;;;;;10.65;5.68;;;6.30;99.90;;;;;;5038482;28;20040;-72
2022/10/12 06:24:34;;;;;;;12.57;6.20;;;6.40;99.90;;;;;;5025638;28;20038;-73
2022/10/12 06:27:00;;;;;;;8.63;5.07;;;6.50;99.90;;;;;;5032566;28;20416;-72
2022/10/12 06:29:26;;;;;;;7.47;4.57;;;6.50;99.90;;;;;;5032050;28;20036;-72
2022/10/12 06:31:53;;;;;;;8.10;4.03;;;6.60;99.90;;;;;;5034482;28;20030;-72
2022/10/12 06:34:19;;;;;;;6.88;3.83;;;6.70;99.90;;;;;;5030159;28;20040;-73
2022/10/12 06:36:46;;;;;;;7.57;4.15;;;6.80;99.90;;;;;;5014747;28;20025;-72
2022/10/12 06:39:12;;;;;;;9.50;4.45;;;6.90;99.90;;;;;;5025090;28;20033;-71
2022/10/12 06:41:39;;;;;;;7.03;3.50;;;7.00;99.90;;;;;;5030060;28;20029;-72
2022/10/12 06:44:08;;;;;;;9.43;3.55;;;7.10;99.90;;;;;;5025120;28;20049;-71
2022/10/12 06:46:34;;;;;;;5.97;2.53;;;7.20;99.90;;;;;;5029914;28;20402;-72
2022/10/12 06:49:01;;;;;;;4.32;2.55;;;7.20;99.90;;;;;;5035409;28;20033;-71
2022/10/12 06:51:27;;;;;;;8.88;4.22;;;7.20;99.90;;;;;;5031903;28;20392;-72
2022/10/12 06:53:54;;;;;;;8.30;4.00;;;7.30;99.90;;;;;;5025758;28;20037;-72
2022/10/12 06:56:20;;;;;;;9.27;3.33;;;7.30;99.90;;;;;;5029700;28;20033;-72
2022/10/12 06:58:47;;;;;;;9.20;5.03;;;7.30;99.90;;;;;;5025708;28;20037;-72
2022/10/12 07:01:13;;;;;;;6.95;2.63;;;7.30;99.90;;;;;;5029146;28;20045;-72
2022/10/12 07:03:39;;;;;;;7.68;3.78;;;7.30;99.90;;;;;;5028298;28;20029;-72
2022/10/12 07:06:11;;;;;;;7.43;3.30;;;7.30;99.90;;;;;;5009283;28;20392;-72
2022/10/12 07:08:39;;;;;;;7.07;3.35;;;7.40;99.90;;;;;;5027002;28;20025;-71
2022/10/12 07:11:07;;;;;;;7.60;3.72;;;7.40;99.90;;;;;;5025358;28;20041;-72
2022/10/12 07:13:34;;;;;;;7.22;3.78;;;7.50;99.90;;;;;;5000963;28;20049;-72
2022/10/12 07:16:01;;;;;;;8.68;4.00;;;7.60;99.90;;;;;;4998409;28;20030;-75
2022/10/12 07:18:27;;;;;;;6.55;3.03;;;7.50;99.90;;;;;;5030319;28;20831;-72
2022/10/12 07:20:57;;;;;;;8.27;3.13;;;7.60;99.90;;;;;;5017607;28;20040;-72
2022/10/12 07:23:23;;;;;;;7.35;2.70;;;7.60;99.90;;;;;;5013110;28;20037;-72
2022/10/12 07:25:51;;;;;;;7.05;3.55;;;7.70;99.90;;;;;;5034496;28;20021;-73
2022/10/12 07:28:19;;;;;;;9.10;4.65;;;7.80;99.90;;;;;;5035423;28;20041;-72
2022/10/12 07:30:45;;;;;;;9.63;4.13;;;7.80;99.90;;;;;;5015763;28;20519;-72
2022/10/12 07:33:12;;;;;;;7.82;4.60;;;7.90;99.90;;;;;;5035568;28;20468;-72
2022/10/12 07:35:38;;;;;;;9.20;4.22;;;8.00;99.90;;;;;;5026313;28;20026;-72
2022/10/12 07:38:05;;;;;;;9.68;3.33;;;8.10;99.90;;;;;;5035266;28;20048;-72
2022/10/12 07:40:32;;;;;;;8.38;4.03;;;8.20;99.90;;;;;;5035012;28;20033;-73
2022/10/12 07:42:58;;;;;;;10.13;5.03;;;8.30;99.90;;;;;;5032544;28;20033;-73
2022/10/12 07:45:27;;;;;;;12.07;5.15;;;8.40;99.90;;;;;;5026990;28;20033;-73
2022/10/12 07:47:54;;;;;;;7.50;4.32;;;8.50;99.90;;;;;;5034770;28;20041;-72
2022/10/12 07:50:21;;;;;;;10.75;4.22;;;8.50;99.90;;;;;;5013311;28;20400;-73
2022/10/12 07:52:47;;;;;;;7.20;4.45;;;8.60;99.90;;;;;;5031359;28;20037;-73
2022/10/12 07:55:14;;;;;;;9.40;4.28;;;8.60;99.90;;;;;;5008891;28;20037;-73
2022/10/12 07:57:40;;;;;;;8.05;4.07;;;8.50;99.90;;;;;;5032405;28;20072;-72
2022/10/12 08:00:07;;;;;;;7.72;3.17;;;8.50;99.90;;;;;;5031239;28;20022;-73
2022/10/12 08:02:38;;;;;;;9.30;3.80;;;8.50;99.90;;;;;;5026338;28;20029;-73
2022/10/12 08:05:04;;;;;;;11.02;5.35;;;8.50;99.90;;;;;;5025501;28;20030;-73
2022/10/12 08:07:30;;;;;;;7.60;3.78;;;8.50;99.90;;;;;;5052802;28;20412;-72
2022/10/12 08:09:57;;;;;;;9.02;3.55;;;8.50;99.90;;;;;;5011222;28;20400;-72
2022/10/12 08:12:23;;;;;;;7.43;4.53;;;8.60;99.90;;;;;;5032039;28;20058;-72
2022/10/12 08:14:49;;;;;;;7.40;4.40;;;8.60;99.90;;;;;;5026155;28;20030;-72
2022/10/12 08:17:15;;;;;;;6.65;3.55;;;8.70;99.90;;;;;;5014615;28;20045;-72
2022/10/12 08:19:42;;;;;;;8.13;4.00;;;8.90;99.90;;;;;;5016986;28;20034;-72
2022/10/12 08:22:10;;;;;;;11.68;5.95;;;9.00;99.90;;;;;;5027595;28;20040;-72
2022/10/12 08:24:36;;;;;;;6.93;4.57;;;9.10;99.90;;;;;;4996172;28;20032;-72
2022/10/12 08:27:03;;;;;;;11.93;5.00;;;9.30;99.90;;;;;;5034153;28;20037;-72
2022/10/12 08:29:29;;;;;;;11.25;5.82;;;9.40;99.90;;;;;;5032243;28;20033;-72
2022/10/12 08:31:55;;;;;;;8.43;5.38;;;9.60;99.90;;;;;;5031894;28;20056;-72
2022/10/12 08:34:23;;;;;;;9.23;4.32;;;9.80;99.90;;;;;;5029462;28;20469;-72
2022/10/12 08:36:50;;;;;;;13.77;5.78;;;10.00;99.90;;;;;;5000308;28;20041;-72
2022/10/12 08:39:17;;;;;;;11.75;6.60;;;10.20;99.90;;;;;;5033589;28;20547;-73
2022/10/12 08:42:15;;;;;;;9.27;5.57;;;10.40;99.90;;;;;;5029645;28;20030;-72
2022/10/12 08:45:06;;;;;;;15.05;6.57;;;10.50;99.90;;;;;;5027942;28;20036;-72
2022/10/12 08:47:41;;;;;;;9.60;5.28;;;10.70;99.90;;;;;;5033487;28;20042;-73
2022/10/12 08:50:17;;;;;;;10.15;4.30;;;10.90;99.90;;;;;;5032958;28;20026;-72
2022/10/12 08:52:54;;;;;;;13.32;6.43;;;11.00;99.90;;;;;;5029528;28;20104;-72
2022/10/12 08:55:44;;;;;;;10.50;4.80;;;11.00;99.90;;;;;;5028633;28;20037;-72
2022/10/12 08:58:19;;;;;;;8.48;4.38;;;11.10;99.90;;;;;;5013635;28;20052;-73
2022/10/12 09:00:57;;;;;;;9.95;4.00;;;11.10;99.90;;;;;;5031742;28;20032;-72
2022/10/12 09:03:57;;;;;;;9.57;4.90;;;11.10;99.90;;;;;;5026642;28;20026;-73
2022/10/12 09:06:38;;;;;;;9.10;4.20;;;11.10;99.90;;;;;;5033478;28;20042;-72
2022/10/12 09:09:10;;;;;;;7.50;4.00;;;11.10;99.90;;;;;;5025934;28;20437;-73
2022/10/12 09:11:54;;;;;;;9.07;4.32;;;11.10;99.90;;;;;;5028375;28;20033;-72
2022/10/12 09:14:29;;;;;;;8.93;3.78;;;11.20;99.90;;;;;;5010898;28;20061;-72
2022/10/12 09:16:59;;;;;;;12.32;6.78;;;11.30;99.90;;;;;;5031854;28;20059;-72
2022/10/12 09:19:35;;;;;;;12.32;5.57;;;11.40;99.90;;;;;;5031694;28;20046;-73
2022/10/12 09:22:04;;;;;;;12.13;5.65;;;11.50;99.90;;;;;;5030828;28;20032;-73
2022/10/12 09:24:35;;;;;;;8.52;4.82;;;11.50;99.90;;;;;;5027855;28;20033;-73
2022/10/12 09:27:16;;;;;;;7.05;4.00;;;11.60;99.90;;;;;;5032112;28;20389;-74
2022/10/12 09:29:56;;;;;;;10.38;4.75;;;11.60;99.90;;;;;;5036780;28;20094;-73
2022/10/12 09:32:55;;;;;;;10.23;4.43;;;11.60;99.90;;;;;;5012618;28;20423;-73
2022/10/12 09:35:21;;;;;;;10.70;5.05;;;11.70;99.90;;;;;;5012947;28;20053;-73
2022/10/12 09:37:51;;;;;;;9.60;4.15;;;11.80;99.90;;;;;;5029443;28;20500;-73
2022/10/12 09:40:30;;;;;;;8.40;4.03;;;11.90;99.90;;;;;;5032637;28;20044;-74
2022/10/12 09:43:02;;;;;;;6.45;3.72;;;12.00;99.90;;;;;;5029710;28;20036;-74
2022/10/12 09:45:31;;;;;;;10.98;4.20;;;12.20;99.90;;;;;;5029849;28;20037;-74
2022/10/12 09:48:19;;;;;;;7.57;3.40;;;12.30;99.90;;;;;;5032057;28;20029;-73
2022/10/12 09:50:53;;;;;;;9.35;4.30;;;12.50;99.90;;;;;;5030438;28;20515;-74
2022/10/12 09:53:57;;;;;;;9.45;5.03;;;12.70;99.90;;;;;;5032724;28;20032;-74
2022/10/12 09:56:29;;;;;;;13.98;6.30;;;13.10;99.90;;;;;;5021538;28;20037;-74
2022/10/12 09:59:04;;;;;;;13.82;7.20;;;13.50;99.90;;;;;;5034022;28;20606;-74
2022/10/12 10:01:33;;;;;;;8.65;4.28;;;13.90;99.90;;;;;;5032961;28;20408;-74
2022/10/12 10:04:11;;;;;;;11.50;5.20;;;14.30;99.90;;;;;;5028100;28;20416;-74
2022/10/12 10:06:40;;;;;;;14.05;5.53;;;14.60;99.90;;;;;;5027903;28;20409;-74
2022/10/12 10:09:30;;;;;;;18.20;10.07;;;15.00;99.90;;;;;;5030980;28;20033;-74
2022/10/12 10:12:10;;;;;;;15.27;7.43;;;15.40;99.90;;;;;;5030017;28;20041;-73
2022/10/12 10:14:36;;;;;;;10.10;5.75;;;15.70;99.90;;;;;;5026566;28;20423;-73
2022/10/12 10:17:03;;;;;;;9.65;5.38;;;16.00;99.90;;;;;;5031778;28;20033;-73
2022/10/12 10:19:29;;;;;;;8.27;4.03;;;16.30;99.90;;;;;;5034198;28;20144;-73
2022/10/12 10:22:03;;;;;;;8.20;4.10;;;16.60;99.90;;;;;;5032369;28;20030;-73
2022/10/12 10:24:31;;;;;;;12.70;3.92;;;16.90;99.90;;;;;;5027927;28;20403;-73
2022/10/12 10:27:03;;;;;;;8.48;3.78;;;17.20;99.90;;;;;;5035429;28;20144;-73
2022/10/12 10:29:37;;;;;;;10.30;4.15;;;17.70;99.90;;;;;;5034855;28;20037;-73
2022/10/12 10:32:25;;;;;;;8.77;3.85;;;18.00;99.90;;;;;;5037924;28;20037;-71
2022/10/12 10:35:17;;;;;;;9.15;4.40;;;18.40;99.90;;;;;;5029709;28;20037;-72
2022/10/12 10:37:50;;;;;;;10.35;4.13;;;18.80;99.90;;;;;;5036367;28;20037;-72
2022/10/12 10:40:28;;;;;;;8.27;4.35;;;19.20;99.90;;;;;;5019107;28;20046;-72
2022/10/12 10:42:57;;;;;;;9.60;5.00;;;19.60;99.90;;;;;;5032297;28;20468;-72
2022/10/12 10:45:46;;;;;;;7.65;3.47;;;19.90;99.90;;;;;;5011699;28;20388;-71
2022/10/12 10:48:20;;;;;;;8.23;4.65;;;20.00;99.90;;;;;;5033613;28;20393;-72
2022/10/12 10:50:59;;;;;;;10.02;4.50;;;20.20;99.90;;;;;;5033589;28;20043;-72
2022/10/12 10:53:30;;;;;;;8.32;4.38;;;20.20;99.90;;;;;;5031448;28;20036;-73
2022/10/12 10:56:15;;;;;;;9.98;4.30;;;20.30;99.90;;;;;;5027429;28;20029;-73
2022/10/12 10:58:50;;;;;;;18.67;11.27;;;20.30;99.90;;;;;;5032059;28;20037;-73
2022/10/12 11:01:24;;;;;;;16.80;12.00;;;20.20;99.40;;;;;;5029050;28;20029;-73
2022/10/12 11:04:04;;;;;;;14.82;8.65;;;20.10;99.10;;;;;;5029597;28;20025;-73
2022/10/12 11:06:42;;;;;;;12.20;6.55;;;19.80;99.00;;;;;;5016577;28;20033;-72
2022/10/12 11:09:18;;;;;;;11.48;6.75;;;19.30;98.90;;;;;;5025982;28;20036;-72
2022/10/12 11:11:52;;;;;;;8.27;5.43;;;18.80;98.80;;;;;;5031906;28;20146;-72
2022/10/12 11:14:26;;;;;;;9.40;5.10;;;18.40;99.20;;;;;;5027903;28;20080;-72
2022/10/12 11:16:57;;;;;;;10.98;6.43;;;18.20;99.30;;;;;;5030137;28;20029;-72
2022/10/12 11:19:28;;;;;;;9.35;6.00;;;18.00;99.30;;;;;;5033498;28;20033;-72
2022/10/12 11:22:18;;;;;;;10.68;6.38;;;17.80;99.50;;;;;;5047168;28;20037;-72
2022/10/12 11:25:01;;;;;;;11.20;6.15;;;17.60;99.60;;;;;;5032751;28;20038;-72
2022/10/12 11:27:35;;;;;;;15.02;8.82;;;17.30;99.90;;;;;;5033754;28;20362;-72
2022/10/12 11:30:14;;;;;;;14.15;7.45;;;17.10;99.90;;;;;;5034489;28;20109;-72
2022/10/12 11:32:45;;;;;;;10.50;6.35;;;16.90;99.90;;;;;;5032738;28;20070;-72
2022/10/12 11:35:32;;;;;;;10.57;8.02;;;16.80;99.90;;;;;;5031504;28;20030;-72
2022/10/12 11:38:13;;;;;;;10.38;6.47;;;16.60;99.90;;;;;;5033528;28;20037;-72
2022/10/12 11:41:04;;;;;;;10.65;5.78;;;16.50;99.90;;;;;;5034341;28;20033;-72
2022/10/12 11:43:39;;;;;;;11.95;6.13;;;16.50;99.90;;;;;;5027683;28;20404;-72
2022/10/12 11:46:09;;;;;;;8.70;4.45;;;16.60;99.90;;;;;;5030483;28;20029;-72
2022/10/12 11:49:01;;;;;;;10.48;5.13;;;16.90;99.90;;;;;;5031334;28;20040;-72
2022/10/12 11:51:27;;;;;;;7.32;3.65;;;17.90;99.90;;;;;;5034579;28;20032;-72
2022/10/12 11:54:24;;;;;;;10.95;4.07;;;18.90;99.90;;;;;;5032231;28;20045;-72
2022/10/12 11:56:53;;;;;;;9.10;3.88;;;20.10;99.10;;;;;;5029074;28;20033;-72
2022/10/12 11:59:43;;;;;;;9.85;3.90;;;21.10;98.20;;;;;;5030175;28;20040;-73
2022/10/12 12:02:26;;;;;;;8.65;4.90;;;22.20;96.70;;;;;;5030941;28;20034;-73
2022/10/12 12:04:52;;;;;;;12.35;5.88;;;23.10;95.60;;;;;;5028528;28;20052;-72
2022/10/12 12:07:22;;;;;;;9.55;4.38;;;23.40;94.20;;;;;;5027646;28;20044;-72
2022/10/12 12:09:49;;;;;;;19.60;13.13;;;23.90;92.80;;;;;;5032123;28;20037;-73
2022/10/12 12:12:17;;;;;;;9.55;6.35;;;24.50;91.70;;;;;;5013282;28;20052;-73
2022/10/12 12:14:52;;;;;;;12.05;5.65;;;24.80;90.30;;;;;;5024941;28;20049;-73
2022/10/12 12:17:18;;;;;;;8.75;4.50;;;25.10;87.00;;;;;;5033149;28;20451;-72
2022/10/12 12:19:58;;;;;;;12.13;5.80;;;24.70;85.00;;;;;;5012275;28;20054;-72
2022/10/12 12:22:31;;;;;;;14.88;7.25;;;23.90;84.50;;;;;;5030041;28;20040;-73
2022/10/12 12:25:07;;;;;;;11.02;7.10;;;23.40;85.50;;;;;;5029321;28;20048;-73
2022/10/12 12:27:44;;;;;;;11.27;7.82;;;23.10;85.60;;;;;;5031170;28;20040;-72
2022/10/12 12:30:16;;;;;;;12.70;6.95;;;22.70;86.00;;;;;;5028930;28;20025;-73
2022/10/12 12:32:49;;;;;;;8.68;5.15;;;22.70;86.60;;;;;;5032502;28;20037;-72
2022/10/12 12:35:29;;;;;;;11.05;5.20;;;23.40;86.30;;;;;;5021897;28;20751;-73
2022/10/12 12:38:18;;;;;;;7.95;3.42;;;24.30;84.70;;;;;;5031742;28;20384;-73
2022/10/12 12:41:06;;;;;;;9.48;4.07;;;25.30;81.90;;;;;;5033315;28;20510;-73
2022/10/12 12:43:35;;;;;;;9.05;4.25;;;25.30;79.30;;;;;;5029419;28;20031;-73
2022/10/12 12:46:11;;;;;;;10.02;3.72;;;24.60;79.50;;;;;;5028772;28;20026;-73
2022/10/12 12:48:40;;;;;;;9.60;3.30;;;23.70;78.90;;;;;;5036639;28;20029;-73
2022/10/12 12:51:08;;;;;;;7.22;2.83;;;22.70;79.90;;;;;;5012239;28;20057;-73
2022/10/12 12:54:07;;;;;;;10.10;4.53;;;21.90;80.60;;;;;;5016821;28;20409;-73
2022/10/12 12:56:48;;;;;;;8.98;3.83;;;21.30;81.80;;;;;;5036533;28;20043;-73
2022/10/12 12:59:53;;;;;;;8.95;3.67;;;20.70;82.80;;;;;;5030826;28;20040;-73
2022/10/12 13:02:29;;;;;;;6.10;3.22;;;20.10;83.80;;;;;;5030477;28;20484;-73
2022/10/12 13:05:14;;;;;;;9.93;3.60;;;19.70;85.00;;;;;;5015936;28;20029;-74
2022/10/12 13:08:11;;;;;;;6.72;3.03;;;19.40;86.40;;;;;;5032808;28;20059;-74
2022/10/12 13:11:00;;;;;;;8.75;3.53;;;19.20;87.30;;;;;;5032648;28;20045;-73
2022/10/12 13:13:47;;;;;;;10.13;3.92;;;19.00;88.20;;;;;;5046846;28;20048;-73
2022/10/12 13:16:22;;;;;;;9.00;3.42;;;18.80;88.40;;;;;;5036364;28;20049;-73